Time;durP1;ratioP1;P1;durP2;ratioP2;P2;SDS_P1;SDS_P2;PMS_P1;PMS_P2;Temp;Humidity;BMP_temperature;BMP_pressure;BME280_temperature;BME280_humidity;BME280_pressure;Samples;Min_cycle;Max_cycle;Signal;HPM_P1;HPM_P2
2023/03/18 00:02:17;;;;;;;20.83;15.57;;;;;;;;;;4961294;28;20097;-66
2023/03/18 00:04:43;;;;;;;20.33;15.93;;;;;;;;;;4945889;28;20039;-66
2023/03/18 00:07:10;;;;;;;21.75;16.15;;;;;;;;;;4962549;28;20061;-66
2023/03/18 00:09:36;;;;;;;21.35;16.48;;;;;;;;;;4960590;28;20161;-66
2023/03/18 00:12:03;;;;;;;21.25;15.45;;;;;;;;;;4961142;28;20058;-66
2023/03/18 00:14:30;;;;;;;24.27;15.68;;;;;;;;;;4962276;28;20448;-65
2023/03/18 00:16:56;;;;;;;23.75;15.82;;;;;;;;;;4961348;28;20058;-66
2023/03/18 00:19:24;;;;;;;23.13;16.08;;;;;;;;;;4962360;28;20043;-65
2023/03/18 00:21:50;;;;;;;24.35;17.45;;;;;;;;;;4962438;28;20601;-66
2023/03/18 00:24:16;;;;;;;22.83;16.13;;;;;;;;;;4962315;28;20053;-66
2023/03/18 00:26:43;;;;;;;21.63;15.35;;;;;;;;;;4944911;28;20046;-66
2023/03/18 00:29:09;;;;;;;24.27;18.20;;;;;;;;;;4928305;28;20094;-66
2023/03/18 00:31:37;;;;;;;24.92;17.23;;;;;;;;;;4962488;28;20049;-66
2023/03/18 00:34:03;;;;;;;24.90;17.13;;;;;;;;;;4961712;28;20519;-66
2023/03/18 00:36:30;;;;;;;24.00;16.52;;;;;;;;;;4961321;28;20501;-65
2023/03/18 00:38:57;;;;;;;26.73;18.20;;;;;;;;;;4960800;28;20042;-65
2023/03/18 00:41:24;;;;;;;28.15;17.92;;;;;;;;;;4962000;28;20089;-66
2023/03/18 00:43:51;;;;;;;23.90;16.23;;;;;;;;;;4957950;28;20490;-66
2023/03/18 00:46:18;;;;;;;24.70;17.45;;;;;;;;;;4940464;28;20406;-66
2023/03/18 00:48:45;;;;;;;31.08;18.75;;;;;;;;;;4957214;28;20062;-66
2023/03/18 00:51:13;;;;;;;35.05;20.02;;;;;;;;;;4960770;28;20047;-66
2023/03/18 00:53:40;;;;;;;27.08;19.00;;;;;;;;;;4959124;28;20640;-66
2023/03/18 00:56:07;;;;;;;31.30;17.67;;;;;;;;;;4960126;28;20038;-66
2023/03/18 00:58:34;;;;;;;27.77;18.83;;;;;;;;;;4960979;28;20402;-66
2023/03/18 01:01:00;;;;;;;30.65;20.73;;;;;;;;;;4942871;28;20482;-66
2023/03/18 01:03:26;;;;;;;27.25;20.30;;;;;;;;;;4946305;28;20563;-66
2023/03/18 01:05:52;;;;;;;29.05;21.20;;;;;;;;;;4950309;28;20097;-66
2023/03/18 01:08:20;;;;;;;36.67;23.33;;;;;;;;;;4967001;28;20538;-66
2023/03/18 01:10:47;;;;;;;30.67;23.77;;;;;;;;;;4969200;28;20093;-66
2023/03/18 01:13:14;;;;;;;32.78;24.33;;;;;;;;;;4949593;28;20129;-66
2023/03/18 01:15:41;;;;;;;38.85;24.83;;;;;;;;;;4966951;28;20042;-66
2023/03/18 01:18:07;;;;;;;39.92;26.15;;;;;;;;;;4967051;28;20105;-66
2023/03/18 01:20:35;;;;;;;32.20;25.30;;;;;;;;;;4968470;28;20109;-65
2023/03/18 01:23:01;;;;;;;34.67;25.80;;;;;;;;;;4969744;28;20070;-65
2023/03/18 01:25:27;;;;;;;42.15;28.50;;;;;;;;;;4951492;28;20037;-65
2023/03/18 01:27:53;;;;;;;40.80;28.33;;;;;;;;;;4967023;28;20046;-65
2023/03/18 01:30:20;;;;;;;38.17;29.88;;;;;;;;;;4968467;28;20061;-66
2023/03/18 01:32:46;;;;;;;43.00;30.15;;;;;;;;;;4966234;28;20064;-65
2023/03/18 01:35:12;;;;;;;49.45;32.92;;;;;;;;;;4968364;28;20122;-66
2023/03/18 01:37:39;;;;;;;47.90;31.60;;;;;;;;;;4948862;28;20051;-65
2023/03/18 01:40:06;;;;;;;39.53;28.40;;;;;;;;;;4966675;28;20055;-66
2023/03/18 01:42:33;;;;;;;41.88;29.85;;;;;;;;;;4967168;28;20506;-66
2023/03/18 01:45:10;;;;;;;40.88;28.95;;;;;;;;;;4952596;28;20049;-66
2023/03/18 01:47:36;;;;;;;36.75;28.65;;;;;;;;;;4948812;28;20097;-66
2023/03/18 01:50:03;;;;;;;37.67;27.58;;;;;;;;;;4968041;28;20043;-66
2023/03/18 01:52:31;;;;;;;39.65;28.75;;;;;;;;;;4969161;28;20115;-65
2023/03/18 01:54:59;;;;;;;36.13;25.45;;;;;;;;;;4967651;28;20185;-65
2023/03/18 01:57:26;;;;;;;38.72;27.45;;;;;;;;;;4968508;28;20164;-65
2023/03/18 01:59:53;;;;;;;42.80;25.50;;;;;;;;;;4966530;28;20521;-66
2023/03/18 02:02:19;;;;;;;32.92;24.55;;;;;;;;;;4962913;28;20047;-66
2023/03/18 02:04:49;;;;;;;32.80;25.95;;;;;;;;;;4967484;28;20145;-66
2023/03/18 02:07:17;;;;;;;34.35;23.92;;;;;;;;;;4966754;28;20105;-66
2023/03/18 02:09:43;;;;;;;32.15;23.42;;;;;;;;;;4951302;28;20116;-66
2023/03/18 02:12:11;;;;;;;31.25;23.80;;;;;;;;;;4968767;28;20170;-66
2023/03/18 02:14:37;;;;;;;38.97;23.92;;;;;;;;;;4963620;28;20082;-66
2023/03/18 02:17:06;;;;;;;38.45;24.25;;;;;;;;;;4965753;28;20920;-66
2023/03/18 02:19:33;;;;;;;36.30;24.17;;;;;;;;;;4965328;28;20066;-66
2023/03/18 02:22:10;;;;;;;36.53;23.42;;;;;;;;;;4962591;28;20039;-66
2023/03/18 02:24:37;;;;;;;34.83;23.92;;;;;;;;;;4959744;28;20123;-66
2023/03/18 02:27:12;;;;;;;43.53;26.70;;;;;;;;;;4962597;28;20121;-66
2023/03/18 02:29:39;;;;;;;39.28;26.42;;;;;;;;;;4945253;28;20054;-66
2023/03/18 02:32:06;;;;;;;34.15;24.30;;;;;;;;;;4963362;28;20047;-66
2023/03/18 02:34:32;;;;;;;39.92;25.55;;;;;;;;;;4962850;28;20062;-65
2023/03/18 02:36:59;;;;;;;39.22;25.50;;;;;;;;;;4960841;28;20035;-66
2023/03/18 02:39:26;;;;;;;40.78;30.15;;;;;;;;;;4963301;28;20142;-66
2023/03/18 02:41:52;;;;;;;39.55;26.23;;;;;;;;;;4962801;28;20078;-66
2023/03/18 02:44:19;;;;;;;35.42;26.67;;;;;;;;;;4960871;28;20499;-66
2023/03/18 02:46:46;;;;;;;35.53;26.10;;;;;;;;;;4963533;28;20050;-66
2023/03/18 02:49:13;;;;;;;38.05;26.63;;;;;;;;;;4963562;28;20035;-66
2023/03/18 02:51:40;;;;;;;34.47;25.10;;;;;;;;;;4960823;28;20081;-65
2023/03/18 02:54:09;;;;;;;33.13;25.10;;;;;;;;;;4963747;28;20050;-66
2023/03/18 02:56:36;;;;;;;39.70;27.73;;;;;;;;;;4961959;28;20051;-66
2023/03/18 02:59:02;;;;;;;39.15;30.42;;;;;;;;;;4961064;28;20118;-66
2023/03/18 03:01:29;;;;;;;41.90;30.20;;;;;;;;;;4961298;28;20051;-66
2023/03/18 03:03:55;;;;;;;45.28;29.58;;;;;;;;;;4960893;28;20050;-66
2023/03/18 03:06:21;;;;;;;37.15;27.05;;;;;;;;;;4962265;28;20050;-66
2023/03/18 03:08:47;;;;;;;35.55;26.20;;;;;;;;;;4961416;28;20069;-66
2023/03/18 03:11:16;;;;;;;44.63;28.05;;;;;;;;;;4961133;28;20048;-65
2023/03/18 03:13:44;;;;;;;41.70;28.15;;;;;;;;;;4963039;28;20046;-66
2023/03/18 03:16:11;;;;;;;43.25;29.23;;;;;;;;;;4960356;28;20054;-66
2023/03/18 03:18:37;;;;;;;36.03;28.50;;;;;;;;;;4963041;28;20047;-66
2023/03/18 03:21:04;;;;;;;37.78;28.13;;;;;;;;;;4961902;28;20052;-66
2023/03/18 03:23:30;;;;;;;36.08;27.60;;;;;;;;;;4961448;28;20058;-65
2023/03/18 03:25:57;;;;;;;43.35;28.92;;;;;;;;;;4959363;28;20411;-65
2023/03/18 03:28:23;;;;;;;41.60;29.05;;;;;;;;;;4962325;28;20129;-65
2023/03/18 03:30:49;;;;;;;39.22;27.83;;;;;;;;;;4962588;28;20098;-66
2023/03/18 03:33:16;;;;;;;37.63;26.55;;;;;;;;;;4959990;28;20055;-66
2023/03/18 03:35:42;;;;;;;38.53;27.00;;;;;;;;;;4963962;28;20047;-66
2023/03/18 03:38:09;;;;;;;40.22;28.63;;;;;;;;;;4963629;28;20129;-66
2023/03/18 03:40:35;;;;;;;39.97;29.88;;;;;;;;;;4962742;28;20478;-66
2023/03/18 03:43:02;;;;;;;44.10;31.77;;;;;;;;;;4962383;28;20125;-65
2023/03/18 03:45:29;;;;;;;43.83;30.67;;;;;;;;;;4961604;28;20529;-66
2023/03/18 03:47:55;;;;;;;48.03;33.08;;;;;;;;;;4963417;28;20050;-66
2023/03/18 03:50:21;;;;;;;47.17;30.95;;;;;;;;;;4962541;28;20050;-66
2023/03/18 03:52:48;;;;;;;47.22;32.35;;;;;;;;;;4962577;28;20058;-65
2023/03/18 03:55:16;;;;;;;48.47;32.47;;;;;;;;;;4959476;28;20053;-66
2023/03/18 03:57:42;;;;;;;48.33;33.08;;;;;;;;;;4963197;28;20055;-66
2023/03/18 04:00:12;;;;;;;52.85;35.17;;;;;;;;;;4959979;28;21657;-65
2023/03/18 04:02:39;;;;;;;51.33;35.75;;;;;;;;;;4958914;28;20055;-65
2023/03/18 04:05:06;;;;;;;55.00;35.70;;;;;;;;;;4945605;28;20054;-66
2023/03/18 04:07:32;;;;;;;57.92;36.63;;;;;;;;;;4961370;28;20160;-65
2023/03/18 04:09:58;;;;;;;56.13;36.58;;;;;;;;;;4961161;28;20137;-65
2023/03/18 04:12:24;;;;;;;60.70;38.47;;;;;;;;;;4960853;28;20056;-65
2023/03/18 04:14:50;;;;;;;59.90;39.60;;;;;;;;;;4961141;28;20046;-67
2023/03/18 04:17:16;;;;;;;54.95;37.20;;;;;;;;;;4945647;28;20070;-66
2023/03/18 04:19:43;;;;;;;70.43;40.55;;;;;;;;;;4962750;28;20953;-65
2023/03/18 04:22:09;;;;;;;63.13;39.40;;;;;;;;;;4961475;28;21345;-66
2023/03/18 04:24:36;;;;;;;64.20;41.72;;;;;;;;;;4960199;28;20154;-66
2023/03/18 04:27:02;;;;;;;68.18;41.13;;;;;;;;;;4962053;28;20447;-65
2023/03/18 04:29:28;;;;;;;61.22;40.30;;;;;;;;;;4958988;28;20100;-65
2023/03/18 04:31:55;;;;;;;65.03;40.65;;;;;;;;;;4960840;28;20142;-65
2023/03/18 04:34:22;;;;;;;60.10;39.95;;;;;;;;;;4958139;28;20054;-66
2023/03/18 04:36:48;;;;;;;50.00;36.50;;;;;;;;;;4960808;28;20050;-66
2023/03/18 04:39:15;;;;;;;54.45;36.42;;;;;;;;;;4943146;28;20125;-65
2023/03/18 04:41:41;;;;;;;66.10;41.00;;;;;;;;;;4962690;28;20050;-66
2023/03/18 04:44:08;;;;;;;58.63;37.63;;;;;;;;;;4961957;28;20051;-65
2023/03/18 04:46:35;;;;;;;68.80;40.15;;;;;;;;;;4962525;28;20173;-66
2023/03/18 04:49:01;;;;;;;63.42;41.15;;;;;;;;;;4958726;28;20153;-66
2023/03/18 04:51:27;;;;;;;80.15;41.97;;;;;;;;;;4958893;28;20049;-66
2023/03/18 04:53:53;;;;;;;145.48;52.45;;;;;;;;;;4960053;28;20042;-66
2023/03/18 04:56:19;;;;;;;143.45;51.85;;;;;;;;;;4942337;28;20489;-65
2023/03/18 04:58:46;;;;;;;227.43;60.25;;;;;;;;;;4937984;28;20059;-66
2023/03/18 05:01:13;;;;;;;288.50;62.67;;;;;;;;;;4943905;28;20050;-67
2023/03/18 05:03:40;;;;;;;220.77;54.00;;;;;;;;;;4961684;28;21859;-66
2023/03/18 05:06:07;;;;;;;237.38;58.63;;;;;;;;;;4956772;28;20201;-67
2023/03/18 05:08:33;;;;;;;342.83;63.38;;;;;;;;;;4965041;28;20050;-66
2023/03/18 05:10:59;;;;;;;247.52;56.95;;;;;;;;;;4941053;28;20050;-66
2023/03/18 05:13:25;;;;;;;236.50;55.35;;;;;;;;;;4960315;28;20053;-66
2023/03/18 05:15:52;;;;;;;277.02;60.53;;;;;;;;;;4945199;28;20101;-66
2023/03/18 05:18:19;;;;;;;249.85;57.88;;;;;;;;;;4941047;28;20051;-67
2023/03/18 05:20:45;;;;;;;554.28;81.13;;;;;;;;;;4942659;28;20491;-66
2023/03/18 05:23:12;;;;;;;312.63;60.03;;;;;;;;;;4955259;28;20138;-66
2023/03/18 05:25:38;;;;;;;311.05;60.20;;;;;;;;;;4939678;28;20446;-66
2023/03/18 05:28:04;;;;;;;337.02;58.10;;;;;;;;;;4943825;28;20494;-66
2023/03/18 05:30:30;;;;;;;395.92;57.67;;;;;;;;;;4933319;28;20074;-66
2023/03/18 05:32:57;;;;;;;355.15;52.72;;;;;;;;;;4937200;28;21274;-66
2023/03/18 05:35:23;;;;;;;408.27;55.05;;;;;;;;;;4940316;28;20062;-66
2023/03/18 05:37:50;;;;;;;482.90;54.70;;;;;;;;;;4941160;28;20073;-66
2023/03/18 05:40:16;;;;;;;368.85;43.65;;;;;;;;;;4940138;28;20455;-67
2023/03/18 05:42:42;;;;;;;477.50;48.28;;;;;;;;;;4942782;28;20190;-66
2023/03/18 05:45:09;;;;;;;432.67;44.10;;;;;;;;;;4942686;28;20059;-67
2023/03/18 05:47:35;;;;;;;379.83;39.70;;;;;;;;;;4923299;29;20054;-67
2023/03/18 05:50:02;;;;;;;403.70;41.38;;;;;;;;;;4943934;28;20525;-90
2023/03/18 05:52:28;;;;;;;458.63;46.13;;;;;;;;;;4928884;29;20035;-81
2023/03/18 05:54:55;;;;;;;401.98;43.88;;;;;;;;;;4911752;29;20043;-67
2023/03/18 05:57:21;;;;;;;428.63;44.22;;;;;;;;;;4944862;28;20050;-67
2023/03/18 05:59:47;;;;;;;467.52;45.50;;;;;;;;;;4923503;29;20114;-76
2023/03/18 06:02:14;;;;;;;437.92;45.55;;;;;;;;;;4919681;29;20044;-66
2023/03/18 06:04:40;;;;;;;474.38;46.53;;;;;;;;;;4948330;28;20051;-66
2023/03/18 06:07:06;;;;;;;463.23;47.20;;;;;;;;;;4946065;28;20134;-66
2023/03/18 06:09:33;;;;;;;526.85;52.00;;;;;;;;;;4944453;28;20047;-76
2023/03/18 06:11:59;;;;;;;626.25;57.10;;;;;;;;;;4928660;29;20058;-67
2023/03/18 06:14:28;;;;;;;511.83;51.85;;;;;;;;;;4945098;28;20052;-66
2023/03/18 06:16:55;;;;;;;666.08;63.67;;;;;;;;;;4944413;28;20048;-65
2023/03/18 06:19:21;;;;;;;646.25;67.78;;;;;;;;;;4944742;28;20505;-71
2023/03/18 06:21:47;;;;;;;653.67;73.38;;;;;;;;;;4928620;29;20149;-81
2023/03/18 06:24:14;;;;;;;678.33;78.82;;;;;;;;;;4926756;29;20134;-71
2023/03/18 06:26:40;;;;;;;720.90;80.25;;;;;;;;;;4924201;29;20125;-67
2023/03/18 06:29:07;;;;;;;782.50;80.65;;;;;;;;;;4925806;29;20047;-67
2023/03/18 06:31:34;;;;;;;779.78;80.97;;;;;;;;;;4962512;28;20055;-66
2023/03/18 06:34:00;;;;;;;785.90;82.93;;;;;;;;;;4964892;28;20106;-66
2023/03/18 06:36:26;;;;;;;768.58;79.75;;;;;;;;;;4963427;28;20050;-66
2023/03/18 06:38:52;;;;;;;839.78;86.03;;;;;;;;;;4964507;28;20049;-65
2023/03/18 06:41:19;;;;;;;772.55;79.47;;;;;;;;;;4962623;28;20062;-65
2023/03/18 06:43:49;;;;;;;828.53;85.70;;;;;;;;;;4962832;28;20045;-64
2023/03/18 06:46:16;;;;;;;858.47;90.47;;;;;;;;;;4962742;28;20062;-65
2023/03/18 06:48:42;;;;;;;850.20;90.68;;;;;;;;;;4960061;28;20066;-64
2023/03/18 06:51:10;;;;;;;767.33;82.43;;;;;;;;;;4963303;28;20129;-64
2023/03/18 06:53:36;;;;;;;751.03;86.25;;;;;;;;;;4963363;28;20050;-63
2023/03/18 06:56:04;;;;;;;755.10;88.10;;;;;;;;;;4955490;28;20084;-64
2023/03/18 06:58:31;;;;;;;458.10;76.45;;;;;;;;;;4960921;28;20062;-68
2023/03/18 07:00:58;;;;;;;274.33;74.07;;;;;;;;;;4963832;28;20031;-64
2023/03/18 07:03:24;;;;;;;238.05;76.40;;;;;;;;;;4961977;28;20066;-64
2023/03/18 07:05:51;;;;;;;224.52;76.78;;;;;;;;;;4964185;28;20046;-64
2023/03/18 07:08:17;;;;;;;208.32;76.55;;;;;;;;;;4963479;28;20465;-65
2023/03/18 07:10:43;;;;;;;195.65;77.20;;;;;;;;;;4962926;28;20386;-64
2023/03/18 07:13:12;;;;;;;201.15;76.25;;;;;;;;;;4963279;28;20407;-64
2023/03/18 07:15:38;;;;;;;189.60;74.00;;;;;;;;;;4966685;28;20109;-64
2023/03/18 07:18:05;;;;;;;184.05;74.35;;;;;;;;;;4965837;28;20133;-64
2023/03/18 07:20:32;;;;;;;183.15;75.95;;;;;;;;;;4963147;28;20051;-64
2023/03/18 07:22:58;;;;;;;174.68;75.50;;;;;;;;;;4961330;28;20058;-64
2023/03/18 07:25:24;;;;;;;164.82;72.88;;;;;;;;;;4962406;28;20049;-63
2023/03/18 07:27:51;;;;;;;157.57;70.85;;;;;;;;;;4962976;28;20475;-64
2023/03/18 07:30:17;;;;;;;158.07;72.35;;;;;;;;;;4960557;28;20070;-64
2023/03/18 07:32:44;;;;;;;148.65;72.70;;;;;;;;;;4960867;28;20043;-63
2023/03/18 07:35:13;;;;;;;145.60;74.25;;;;;;;;;;4961713;28;20061;-63
2023/03/18 07:37:40;;;;;;;142.60;72.82;;;;;;;;;;4960244;28;20498;-64
2023/03/18 07:40:07;;;;;;;137.18;72.80;;;;;;;;;;4942502;28;20093;-64
2023/03/18 07:42:33;;;;;;;146.43;78.68;;;;;;;;;;4960484;28;20061;-63
2023/03/18 07:44:59;;;;;;;153.55;82.47;;;;;;;;;;4953185;28;20054;-63
2023/03/18 07:47:25;;;;;;;144.15;79.07;;;;;;;;;;4940527;28;20101;-63
2023/03/18 07:49:51;;;;;;;124.38;73.10;;;;;;;;;;4958942;28;20082;-64
2023/03/18 07:52:18;;;;;;;125.32;73.82;;;;;;;;;;4959941;28;20047;-69
2023/03/18 07:54:44;;;;;;;117.57;74.20;;;;;;;;;;4967788;28;20047;-64
2023/03/18 07:57:11;;;;;;;121.93;73.88;;;;;;;;;;4946041;28;20058;-64
2023/03/18 07:59:38;;;;;;;111.18;67.75;;;;;;;;;;4946885;28;20054;-64
2023/03/18 08:02:06;;;;;;;103.30;66.75;;;;;;;;;;4964546;28;20034;-66
2023/03/18 08:04:34;;;;;;;105.68;66.68;;;;;;;;;;4963828;28;20458;-64
2023/03/18 08:07:01;;;;;;;103.10;63.53;;;;;;;;;;4966464;28;20038;-64
2023/03/18 08:09:28;;;;;;;93.57;61.08;;;;;;;;;;4963213;28;20529;-65
2023/03/18 08:11:54;;;;;;;92.43;58.17;;;;;;;;;;4959949;28;20053;-62
2023/03/18 08:14:20;;;;;;;102.57;63.22;;;;;;;;;;4960755;28;20144;-63
2023/03/18 08:16:47;;;;;;;102.90;63.53;;;;;;;;;;4959137;28;20146;-63
2023/03/18 08:19:13;;;;;;;92.80;59.47;;;;;;;;;;4943647;28;20066;-64
2023/03/18 08:21:39;;;;;;;86.15;56.80;;;;;;;;;;4959249;28;20100;-65
2023/03/18 08:24:05;;;;;;;83.53;56.45;;;;;;;;;;4961224;28;20141;-87
2023/03/18 08:26:32;;;;;;;88.43;57.22;;;;;;;;;;4944774;28;20053;-75
2023/03/18 08:28:58;;;;;;;85.63;54.20;;;;;;;;;;4941220;28;20058;-79
2023/03/18 08:31:24;;;;;;;70.22;48.75;;;;;;;;;;4959570;28;20055;-77
2023/03/18 08:33:53;;;;;;;70.57;49.25;;;;;;;;;;4943121;28;20054;-78
2023/03/18 08:36:19;;;;;;;83.22;50.85;;;;;;;;;;4960187;28;20490;-77
2023/03/18 08:38:45;;;;;;;73.30;52.45;;;;;;;;;;4942946;28;20161;-77
2023/03/18 08:41:11;;;;;;;73.10;50.45;;;;;;;;;;4958238;28;20630;-74
2023/03/18 08:43:38;;;;;;;71.72;50.17;;;;;;;;;;4941017;28;20083;-74
2023/03/18 08:46:05;;;;;;;69.07;49.50;;;;;;;;;;4942241;28;20043;-74
2023/03/18 08:48:31;;;;;;;71.35;49.22;;;;;;;;;;4960836;28;20130;-74
2023/03/18 08:50:58;;;;;;;71.55;49.88;;;;;;;;;;4961773;28;20476;-75
2023/03/18 08:53:24;;;;;;;74.50;49.17;;;;;;;;;;4961812;28;20058;-74
2023/03/18 08:55:51;;;;;;;61.53;47.08;;;;;;;;;;4963728;28;20086;-76
2023/03/18 08:58:17;;;;;;;69.72;48.85;;;;;;;;;;4946654;28;20130;-78
2023/03/18 09:00:43;;;;;;;67.63;48.35;;;;;;;;;;4947158;28;20155;-71
2023/03/18 09:03:10;;;;;;;64.22;44.63;;;;;;;;;;4963496;28;20046;-69
2023/03/18 09:05:37;;;;;;;64.55;42.92;;;;;;;;;;4963608;28;20123;-65
2023/03/18 09:08:04;;;;;;;66.25;46.75;;;;;;;;;;4964175;28;20047;-79
2023/03/18 09:10:30;;;;;;;68.47;44.10;;;;;;;;;;4940607;28;20391;-66
2023/03/18 09:12:56;;;;;;;66.75;45.80;;;;;;;;;;4964294;28;20364;-65
2023/03/18 09:15:22;;;;;;;58.42;44.60;;;;;;;;;;4962041;28;20047;-66
2023/03/18 09:17:48;;;;;;;61.70;43.33;;;;;;;;;;4956358;28;20557;-65
2023/03/18 09:20:16;;;;;;;62.53;43.63;;;;;;;;;;4964805;28;20074;-63
2023/03/18 09:22:43;;;;;;;59.15;42.08;;;;;;;;;;4961499;28;20042;-64
2023/03/18 09:25:09;;;;;;;53.25;41.15;;;;;;;;;;4949183;28;20051;-64
2023/03/18 09:27:36;;;;;;;55.70;40.40;;;;;;;;;;4967732;28;20109;-74
2023/03/18 09:30:02;;;;;;;55.60;41.53;;;;;;;;;;4951623;28;20430;-63
2023/03/18 09:32:29;;;;;;;57.33;41.63;;;;;;;;;;4963979;28;20141;-66
2023/03/18 09:34:55;;;;;;;53.08;39.38;;;;;;;;;;4966088;28;20461;-74
2023/03/18 09:37:21;;;;;;;55.47;40.40;;;;;;;;;;4963170;28;20047;-69
2023/03/18 09:39:47;;;;;;;57.22;39.63;;;;;;;;;;4962478;28;20047;-65
2023/03/18 09:42:20;;;;;;;54.10;38.75;;;;;;;;;;4965414;28;20089;-64
2023/03/18 09:44:51;;;;;;;48.53;38.40;;;;;;;;;;4961344;28;20062;-64
2023/03/18 09:47:25;;;;;;;49.35;37.97;;;;;;;;;;4964079;28;20042;-64
2023/03/18 09:49:52;;;;;;;57.25;40.35;;;;;;;;;;4962568;28;20054;-64
2023/03/18 09:52:26;;;;;;;55.05;41.00;;;;;;;;;;4962058;28;20094;-64
2023/03/18 09:54:57;;;;;;;49.60;37.38;;;;;;;;;;4963819;28;20042;-64
2023/03/18 09:57:25;;;;;;;48.28;37.22;;;;;;;;;;4965123;28;20405;-65
2023/03/18 09:59:54;;;;;;;49.22;36.40;;;;;;;;;;4968095;28;20122;-65
2023/03/18 10:02:23;;;;;;;51.92;36.40;;;;;;;;;;4958501;28;20118;-65
2023/03/18 10:04:52;;;;;;;44.33;34.58;;;;;;;;;;4966619;28;20039;-65
2023/03/18 10:07:22;;;;;;;44.08;32.95;;;;;;;;;;4963342;28;20076;-65
2023/03/18 10:09:58;;;;;;;40.70;31.52;;;;;;;;;;4968243;28;20051;-65
2023/03/18 10:12:35;;;;;;;33.67;27.25;;;;;;;;;;4966695;28;21587;-65
2023/03/18 10:15:15;;;;;;;35.47;27.20;;;;;;;;;;4965198;28;20043;-65
2023/03/18 10:17:41;;;;;;;32.72;25.40;;;;;;;;;;4966249;28;20545;-65
2023/03/18 10:20:16;;;;;;;33.13;24.40;;;;;;;;;;4966734;28;20143;-65
2023/03/18 10:22:49;;;;;;;30.25;23.10;;;;;;;;;;4967169;28;20471;-64
2023/03/18 10:25:30;;;;;;;34.85;23.70;;;;;;;;;;4966922;28;20046;-65
2023/03/18 10:28:09;;;;;;;28.42;21.90;;;;;;;;;;4964579;28;21122;-65
2023/03/18 10:30:46;;;;;;;29.02;20.20;;;;;;;;;;4964166;28;20384;-65
2023/03/18 10:33:16;;;;;;;24.38;19.27;;;;;;;;;;4964760;28;20414;-65
2023/03/18 10:35:48;;;;;;;24.70;19.08;;;;;;;;;;4965713;28;20046;-65
2023/03/18 10:38:18;;;;;;;23.10;18.15;;;;;;;;;;4966309;28;20451;-65
2023/03/18 10:40:46;;;;;;;24.63;18.02;;;;;;;;;;4966809;28;20050;-65
2023/03/18 10:43:18;;;;;;;22.20;17.00;;;;;;;;;;4946958;28;20073;-65
2023/03/18 10:45:45;;;;;;;22.63;15.77;;;;;;;;;;4948522;28;20054;-65
2023/03/18 10:48:17;;;;;;;24.00;18.20;;;;;;;;;;4946279;28;20157;-65
2023/03/18 10:50:45;;;;;;;27.50;19.48;;;;;;;;;;4963121;28;20506;-65
2023/03/18 10:53:17;;;;;;;22.60;16.10;;;;;;;;;;4963421;28;20039;-64
2023/03/18 10:55:53;;;;;;;21.73;17.33;;;;;;;;;;4944539;28;20081;-64
2023/03/18 10:58:20;;;;;;;19.88;15.82;;;;;;;;;;4962792;28;20057;-65
2023/03/18 11:00:46;;;;;;;18.65;13.68;;;;;;;;;;4963215;28;20050;-64
2023/03/18 11:03:21;;;;;;;20.38;13.57;;;;;;;;;;4960958;28;20050;-64
2023/03/18 11:05:49;;;;;;;18.55;12.90;;;;;;;;;;4963354;28;20051;-65
2023/03/18 11:08:31;;;;;;;17.67;14.13;;;;;;;;;;4960228;28;20034;-65
2023/03/18 11:10:58;;;;;;;17.20;11.65;;;;;;;;;;4961733;28;20043;-65
2023/03/18 11:13:26;;;;;;;14.20;10.75;;;;;;;;;;4959085;28;20050;-65
2023/03/18 11:15:55;;;;;;;16.30;12.40;;;;;;;;;;4961097;28;20133;-65
2023/03/18 11:18:23;;;;;;;13.10;9.55;;;;;;;;;;4962208;28;20391;-65
2023/03/18 11:20:59;;;;;;;13.77;10.30;;;;;;;;;;4963263;28;20039;-65
2023/03/18 11:23:54;;;;;;;12.68;9.25;;;;;;;;;;4963198;28;20624;-65
2023/03/18 11:26:22;;;;;;;8.93;6.15;;;;;;;;;;4930010;28;20047;-65
2023/03/18 11:28:49;;;;;;;10.27;6.28;;;;;;;;;;4961148;28;20070;-65
2023/03/18 11:31:17;;;;;;;8.35;5.93;;;;;;;;;;4958447;28;20054;-65
2023/03/18 11:33:43;;;;;;;6.75;4.38;;;;;;;;;;4961013;28;20674;-65
2023/03/18 11:36:13;;;;;;;8.32;5.20;;;;;;;;;;4960995;28;20038;-65
2023/03/18 11:38:41;;;;;;;8.07;5.03;;;;;;;;;;4964633;28;20117;-65
2023/03/18 11:41:09;;;;;;;8.02;5.65;;;;;;;;;;4966739;28;20047;-65
2023/03/18 11:43:37;;;;;;;10.00;5.55;;;;;;;;;;4967195;28;20054;-65
2023/03/18 11:46:04;;;;;;;6.90;4.07;;;;;;;;;;4947387;28;20427;-65
2023/03/18 11:48:38;;;;;;;7.43;4.07;;;;;;;;;;4965557;28;20043;-65
2023/03/18 11:51:10;;;;;;;5.47;3.55;;;;;;;;;;4945745;28;20042;-65
2023/03/18 11:53:43;;;;;;;3.58;1.70;;;;;;;;;;4965242;28;20327;-65
2023/03/18 11:56:09;;;;;;;6.30;3.13;;;;;;;;;;4946754;28;20448;-65
2023/03/18 11:58:46;;;;;;;6.15;3.40;;;;;;;;;;4967223;28;20087;-65
2023/03/18 12:01:17;;;;;;;7.78;3.50;;;;;;;;;;4966835;28;20356;-65
2023/03/18 12:03:48;;;;;;;27.15;5.18;;;;;;;;;;4963586;28;20494;-64
2023/03/18 12:06:20;;;;;;;9.43;5.55;;;;;;;;;;4960438;28;20038;-64
2023/03/18 12:09:03;;;;;;;8.77;5.50;;;;;;;;;;4943080;28;20093;-65
2023/03/18 12:11:50;;;;;;;9.13;6.28;;;;;;;;;;4961223;28;20125;-65
2023/03/18 12:14:24;;;;;;;9.25;6.72;;;;;;;;;;4961920;28;20375;-65
2023/03/18 12:16:57;;;;;;;10.45;7.35;;;;;;;;;;4965372;28;20042;-65
2023/03/18 12:19:34;;;;;;;9.60;7.25;;;;;;;;;;4964784;28;20521;-65
2023/03/18 12:22:11;;;;;;;11.27;7.63;;;;;;;;;;4965235;28;20126;-65
2023/03/18 12:24:48;;;;;;;9.82;6.03;;;;;;;;;;4946488;28;20053;-65
2023/03/18 12:27:23;;;;;;;13.57;6.90;;;;;;;;;;4963437;28;20049;-65
2023/03/18 12:29:51;;;;;;;9.57;6.25;;;;;;;;;;4963992;28;20051;-65
2023/03/18 12:32:18;;;;;;;8.02;4.95;;;;;;;;;;4946691;28;20065;-65
2023/03/18 12:34:56;;;;;;;9.50;5.80;;;;;;;;;;4959873;28;20053;-65
2023/03/18 12:37:31;;;;;;;9.05;5.63;;;;;;;;;;4957461;28;20057;-65
2023/03/18 12:40:12;;;;;;;10.95;4.82;;;;;;;;;;4959799;28;20046;-65
2023/03/18 12:42:46;;;;;;;5.93;3.25;;;;;;;;;;4959814;28;20392;-65
2023/03/18 12:45:14;;;;;;;6.28;3.15;;;;;;;;;;4961199;28;20137;-65
2023/03/18 12:47:42;;;;;;;6.70;3.63;;;;;;;;;;4960886;28;20043;-65
2023/03/18 12:50:18;;;;;;;6.75;2.28;;;;;;;;;;4960315;28;20446;-65
2023/03/18 12:52:50;;;;;;;7.07;2.45;;;;;;;;;;4959396;28;20046;-65
2023/03/18 12:55:18;;;;;;;4.85;2.65;;;;;;;;;;4959629;28;20050;-65
2023/03/18 12:57:49;;;;;;;5.40;2.50;;;;;;;;;;4960031;28;20073;-65
2023/03/18 13:00:19;;;;;;;6.80;2.20;;;;;;;;;;4961602;28;20039;-65
2023/03/18 13:02:56;;;;;;;6.03;2.40;;;;;;;;;;4959044;28;20539;-65
2023/03/18 13:05:23;;;;;;;7.60;2.75;;;;;;;;;;4960539;28;20469;-65
2023/03/18 13:07:53;;;;;;;5.28;2.72;;;;;;;;;;4942634;28;20050;-65
2023/03/18 13:10:22;;;;;;;6.75;2.00;;;;;;;;;;4959532;28;20050;-65
2023/03/18 13:12:53;;;;;;;4.25;2.03;;;;;;;;;;4960533;28;20406;-65
2023/03/18 13:15:34;;;;;;;4.53;2.30;;;;;;;;;;4943413;28;20059;-65
2023/03/18 13:18:05;;;;;;;5.43;2.30;;;;;;;;;;4938317;28;20034;-65
2023/03/18 13:20:34;;;;;;;4.72;2.22;;;;;;;;;;4961992;28;20047;-65
2023/03/18 13:23:25;;;;;;;6.07;2.00;;;;;;;;;;4957564;28;20035;-65
2023/03/18 13:25:53;;;;;;;4.75;2.67;;;;;;;;;;4961693;28;20433;-66
2023/03/18 13:28:36;;;;;;;6.07;2.70;;;;;;;;;;4943158;28;20051;-65
2023/03/18 13:31:10;;;;;;;4.35;2.40;;;;;;;;;;4959211;28;20424;-65
2023/03/18 13:33:40;;;;;;;6.63;3.88;;;;;;;;;;4958233;28;20054;-66
2023/03/18 13:36:07;;;;;;;7.38;3.42;;;;;;;;;;4961277;28;20055;-66
2023/03/18 13:38:53;;;;;;;7.43;3.63;;;;;;;;;;4960371;28;20043;-66
2023/03/18 13:41:31;;;;;;;7.50;3.55;;;;;;;;;;4958604;28;20051;-66
2023/03/18 13:44:00;;;;;;;6.82;3.88;;;;;;;;;;4942917;28;20055;-66
2023/03/18 13:46:28;;;;;;;6.38;3.58;;;;;;;;;;4960970;28;20062;-66
2023/03/18 13:48:56;;;;;;;5.57;3.42;;;;;;;;;;4960939;28;20049;-65
2023/03/18 13:51:23;;;;;;;6.20;3.28;;;;;;;;;;4942929;28;20173;-66
2023/03/18 13:53:50;;;;;;;6.85;3.05;;;;;;;;;;4961936;28;20137;-66
2023/03/18 13:56:32;;;;;;;5.53;3.00;;;;;;;;;;4944640;28;20102;-66
2023/03/18 13:59:04;;;;;;;4.75;3.00;;;;;;;;;;4959525;28;20087;-66
2023/03/18 14:01:32;;;;;;;5.88;3.30;;;;;;;;;;4959491;28;20050;-66
2023/03/18 14:04:01;;;;;;;6.10;3.72;;;;;;;;;;4962485;28;20057;-66
2023/03/18 14:06:47;;;;;;;6.15;3.35;;;;;;;;;;4961012;28;20146;-66
2023/03/18 14:09:31;;;;;;;7.72;4.13;;;;;;;;;;4958481;28;20495;-65
2023/03/18 14:11:57;;;;;;;;;;;;;;;;;;4964203;28;20038;-65
2023/03/18 14:14:41;;;;;;;7.05;4.15;;;;;;;;;;4964357;28;19933;-65
2023/03/18 14:17:15;;;;;;;6.85;4.70;;;;;;;;;;4965808;28;20113;-65
2023/03/18 14:19:43;;;;;;;8.18;5.13;;;;;;;;;;4964202;28;20566;-65
2023/03/18 14:22:19;;;;;;;7.13;5.00;;;;;;;;;;4946414;28;20043;-65
2023/03/18 14:24:46;;;;;;;6.85;4.63;;;;;;;;;;4946020;28;20047;-65
2023/03/18 14:27:16;;;;;;;9.05;5.28;;;;;;;;;;4963178;28;21963;-65